createdAt,value
2022-08-26T00:01:31.267Z,15.07
2022-08-26T00:03:58.909Z,11.77
2022-08-26T00:06:26.347Z,11.85
2022-08-26T00:08:53.396Z,15.77
2022-08-26T00:11:26.832Z,13.48
2022-08-26T00:13:55.316Z,15.57
2022-08-26T00:16:24.855Z,16.73
2022-08-26T00:18:53.020Z,15.65
2022-08-26T00:21:20.139Z,19.65
2022-08-26T00:23:46.950Z,20.65
2022-08-26T00:26:14.420Z,18.83
2022-08-26T00:28:41.155Z,15.57
2022-08-26T00:31:11.137Z,19.10
2022-08-26T00:33:41.610Z,17.42
2022-08-26T00:36:09.536Z,18.58
2022-08-26T00:38:46.747Z,15.68
2022-08-26T00:41:13.795Z,15.93
2022-08-26T00:43:47.580Z,17.40
2022-08-26T00:46:19.745Z,14.05
2022-08-26T00:48:50.122Z,16.45
2022-08-26T00:51:29.579Z,16.42
2022-08-26T00:54:06.820Z,17.35
2022-08-26T00:56:43.358Z,21.10
2022-08-26T00:59:13.164Z,22.98
2022-08-26T01:01:41.960Z,20.35
2022-08-26T01:04:10.851Z,15.77
2022-08-26T01:06:37.691Z,16.77
2022-08-26T01:09:04.814Z,18.45
2022-08-26T01:11:32.732Z,14.85
2022-08-26T01:14:02.820Z,17.08
2022-08-26T01:16:30.177Z,21.05
2022-08-26T01:19:02.175Z,16.77
2022-08-26T01:21:36.470Z,18.75
2022-08-26T01:24:08.755Z,17.85
2022-08-26T01:26:41.550Z,16.75
2022-08-26T01:29:18.946Z,14.88
2022-08-26T01:31:55.611Z,17.75
2022-08-26T01:34:32.044Z,16.92
2022-08-26T01:37:07.371Z,19.45
2022-08-26T01:39:36.166Z,15.43
2022-08-26T01:42:05.734Z,15.57
2022-08-26T01:44:46.457Z,15.10
2022-08-26T01:47:17.278Z,22.63
2022-08-26T01:49:48.074Z,17.75
2022-08-26T01:52:24.209Z,17.38
2022-08-26T01:54:57.530Z,17.27
2022-08-26T01:57:25.357Z,19.75
2022-08-26T01:59:56.122Z,19.77
2022-08-26T02:02:24.435Z,17.92
2022-08-26T02:04:57.324Z,19.90
2022-08-26T02:07:26.639Z,20.15
2022-08-26T02:09:54.579Z,21.25
2022-08-26T02:12:21.845Z,19.20
2022-08-26T02:14:53.857Z,20.17
2022-08-26T02:17:25.878Z,20.42
2022-08-26T02:19:53.206Z,20.65
2022-08-26T02:22:24.475Z,19.63
2022-08-26T02:25:06.048Z,21.33
2022-08-26T02:27:35.184Z,19.50
2022-08-26T02:30:24.626Z,24.80
2022-08-26T02:32:53.297Z,20.83
2022-08-26T02:35:22.475Z,20.50
2022-08-26T02:37:50.656Z,22.85
2022-08-26T02:40:21.734Z,17.23
2022-08-26T02:42:49.131Z,16.48
2022-08-26T02:45:16.780Z,19.42
2022-08-26T02:47:50.696Z,18.83
2022-08-26T02:50:17.498Z,23.55
2022-08-26T02:52:44.353Z,50.55
2022-08-26T02:55:11.183Z,34.25
2022-08-26T02:57:38.087Z,85.15
2022-08-26T03:00:08.733Z,47.83
2022-08-26T03:02:35.388Z,28.73
2022-08-26T03:05:02.508Z,33.70
2022-08-26T03:07:30.041Z,24.05
2022-08-26T03:09:57.301Z,25.48
2022-08-26T03:12:24.287Z,17.83
2022-08-26T03:14:52.821Z,20.23
2022-08-26T03:17:19.515Z,17.55
2022-08-26T03:19:46.154Z,37.90
2022-08-26T03:22:14.508Z,23.48
2022-08-26T03:24:41.446Z,39.30
2022-08-26T03:27:12.729Z,116.75
2022-08-26T03:29:59.639Z,49.83
2022-08-26T03:32:27.055Z,33.08
2022-08-26T03:34:54.604Z,51.38
2022-08-26T03:37:21.699Z,35.67
2022-08-26T03:39:48.763Z,30.95
2022-08-26T03:42:16.318Z,34.55
2022-08-26T03:44:43.373Z,26.65
2022-08-26T03:47:12.001Z,25.63
2022-08-26T03:49:38.912Z,30.65
2022-08-26T03:52:06.318Z,25.23
2022-08-26T03:54:33.619Z,29.60
2022-08-26T03:57:00.281Z,78.25
2022-08-26T03:59:27.446Z,27.42
2022-08-26T04:01:54.673Z,34.53
2022-08-26T04:04:22.873Z,43.30
2022-08-26T04:06:57.654Z,60.20
2022-08-26T04:09:24.739Z,79.97
2022-08-26T04:11:51.855Z,39.67
2022-08-26T04:14:21.934Z,55.97
2022-08-26T04:16:49.210Z,109.43
2022-08-26T04:19:17.338Z,31.73
2022-08-26T04:21:46.114Z,53.53
2022-08-26T04:24:15.729Z,38.80
2022-08-26T04:26:43.900Z,39.65
2022-08-26T04:29:20.038Z,37.45
2022-08-26T04:31:50.543Z,100.05
2022-08-26T04:34:23.418Z,191.68
2022-08-26T04:36:50.258Z,87.18
2022-08-26T04:39:19.711Z,89.85
2022-08-26T04:41:48.631Z,208.95
2022-08-26T04:44:17.302Z,144.75
2022-08-26T04:46:44.402Z,62.95
2022-08-26T04:49:11.644Z,51.65
2022-08-26T04:51:39.452Z,40.30
2022-08-26T04:54:07.237Z,64.00
2022-08-26T04:56:37.287Z,58.58
2022-08-26T04:59:24.592Z,95.10
2022-08-26T05:01:53.428Z,64.75
2022-08-26T05:04:21.087Z,104.38
2022-08-26T05:06:48.789Z,70.32
2022-08-26T05:09:15.630Z,77.22
2022-08-26T05:11:42.339Z,85.95
2022-08-26T05:14:09.752Z,189.85
2022-08-26T05:16:36.668Z,107.22
2022-08-26T05:19:04.749Z,146.93
2022-08-26T05:21:31.437Z,371.55
2022-08-26T05:23:58.633Z,165.63
2022-08-26T05:26:28.711Z,178.80
2022-08-26T05:28:56.586Z,211.27
2022-08-26T05:31:29.475Z,233.90
2022-08-26T05:33:57.748Z,201.25
2022-08-26T05:36:27.695Z,246.27
2022-08-26T05:38:56.163Z,155.25
2022-08-26T05:41:34.416Z,154.40
2022-08-26T05:44:08.683Z,198.93
2022-08-26T05:46:37.169Z,226.60
2022-08-26T05:49:05.839Z,179.85
2022-08-26T05:51:36.462Z,263.25
2022-08-26T05:54:04.307Z,233.48
2022-08-26T05:56:30.931Z,174.15
2022-08-26T05:59:01.439Z,310.25
2022-08-26T06:01:29.097Z,370.17
2022-08-26T06:04:14.736Z,172.98
2022-08-26T06:06:45.020Z,216.73
2022-08-26T06:09:14.855Z,285.63
2022-08-26T06:11:45.142Z,278.02
2022-08-26T06:14:19.759Z,517.55
2022-08-26T06:16:47.037Z,103.57
2022-08-26T06:19:18.543Z,124.40
2022-08-26T06:21:53.962Z,130.90
2022-08-26T06:24:41.711Z,222.45
2022-08-26T06:27:13.408Z,177.38
2022-08-26T06:29:40.220Z,204.32
2022-08-26T06:32:09.259Z,72.15
2022-08-26T06:34:38.422Z,167.80
2022-08-26T06:37:06.367Z,92.40
2022-08-26T06:39:33.419Z,71.60
2022-08-26T06:42:17.855Z,64.60
2022-08-26T06:44:47.191Z,79.10
2022-08-26T06:47:14.886Z,52.33
2022-08-26T06:49:41.775Z,36.63
2022-08-26T06:52:11.023Z,46.85
2022-08-26T06:54:41.695Z,31.75
2022-08-26T06:57:10.824Z,30.13
2022-08-26T06:59:38.003Z,124.25
2022-08-26T07:02:06.268Z,56.95
2022-08-26T07:04:35.956Z,50.85
2022-08-26T07:07:02.772Z,171.48
2022-08-26T07:09:48.462Z,371.08
2022-08-26T07:12:30.747Z,103.60
2022-08-26T07:14:59.803Z,136.40
2022-08-26T07:17:26.643Z,141.15
2022-08-26T07:19:54.190Z,155.13
2022-08-26T07:22:21.278Z,98.07
2022-08-26T07:24:50.904Z,215.30
2022-08-26T07:27:17.761Z,101.63
2022-08-26T07:29:45.245Z,343.25
2022-08-26T07:32:17.039Z,84.47
2022-08-26T07:34:45.715Z,174.82
2022-08-26T07:37:12.619Z,59.35
2022-08-26T07:39:41.761Z,260.52
2022-08-26T07:42:13.365Z,67.85
2022-08-26T07:44:41.879Z,68.85
2022-08-26T07:47:25.115Z,243.30
2022-08-26T07:49:55.011Z,41.35
2022-08-26T07:52:26.347Z,79.05
2022-08-26T07:54:57.916Z,42.58
2022-08-26T07:57:25.284Z,22.30
2022-08-26T07:59:55.057Z,34.25
2022-08-26T08:02:23.733Z,44.10
2022-08-26T08:04:52.083Z,21.20
2022-08-26T08:07:18.799Z,136.55
2022-08-26T08:09:45.456Z,137.93
2022-08-26T08:12:21.160Z,34.97
2022-08-26T08:14:52.597Z,60.97
2022-08-26T08:17:19.676Z,40.40
2022-08-26T08:19:48.017Z,19.65
2022-08-26T08:22:19.798Z,20.55
2022-08-26T08:24:49.951Z,25.70
2022-08-26T08:27:23.666Z,21.70
2022-08-26T08:29:54.284Z,22.33
2022-08-26T08:32:23.016Z,17.58
2022-08-26T08:34:49.719Z,18.48
2022-08-26T08:37:16.601Z,17.60
2022-08-26T08:39:43.319Z,16.55
2022-08-26T08:42:37.148Z,16.15
2022-08-26T08:45:10.433Z,16.40
2022-08-26T08:47:47.486Z,16.08
2022-08-26T08:50:33.957Z,14.27
2022-08-26T08:53:12.902Z,14.50
2022-08-26T08:55:53.023Z,14.68
2022-08-26T08:58:23.501Z,12.30
2022-08-26T09:00:57.374Z,15.07
2022-08-26T09:03:42.785Z,13.02
2022-08-26T09:06:17.422Z,11.88
2022-08-26T09:08:47.098Z,11.50
2022-08-26T09:11:19.142Z,12.50
2022-08-26T09:13:52.773Z,15.13
2022-08-26T09:16:41.852Z,10.32
2022-08-26T09:19:32.577Z,9.20
2022-08-26T09:22:02.247Z,12.20
2022-08-26T09:24:41.617Z,9.27
2022-08-26T09:27:08.887Z,8.85
2022-08-26T09:29:43.951Z,9.48
2022-08-26T09:32:16.328Z,12.80
2022-08-26T09:34:58.714Z,8.63
2022-08-26T09:40:27.511Z,8.77
2022-08-26T09:43:04.130Z,6.35
2022-08-26T09:45:30.883Z,7.57
2022-08-26T09:48:01.283Z,6.53
2022-08-26T09:50:38.314Z,7.72
2022-08-26T09:53:21.099Z,11.05
2022-08-26T09:56:12.219Z,5.45
2022-08-26T09:58:42.587Z,6.00
2022-08-26T10:01:36.527Z,6.53
2022-08-26T10:04:19.897Z,8.85
2022-08-26T10:06:59.180Z,4.97
2022-08-26T10:09:26.569Z,5.13
2022-08-26T10:12:02.292Z,7.13
2022-08-26T10:14:39.984Z,9.68
2022-08-26T10:17:50.242Z,6.72
2022-08-26T10:20:34.756Z,7.68
2022-08-26T10:23:15.032Z,6.40
2022-08-26T10:26:00.330Z,8.10
2022-08-26T10:28:49.028Z,5.35
2022-08-26T10:31:40.282Z,5.53
2022-08-26T10:34:12.469Z,7.93
2022-08-26T10:37:10.507Z,5.60
2022-08-26T10:39:43.866Z,7.85
2022-08-26T10:42:48.325Z,5.57
2022-08-26T10:45:25.189Z,6.30
2022-08-26T10:47:54.688Z,5.55
2022-08-26T10:50:26.175Z,7.15
2022-08-26T10:53:02.005Z,6.25
2022-08-26T10:58:11.632Z,6.75
2022-08-26T11:01:10.203Z,5.70
2022-08-26T11:04:06.031Z,7.88
2022-08-26T11:06:32.902Z,8.32
2022-08-26T11:09:06.275Z,8.50
2022-08-26T11:11:42.446Z,8.10
2022-08-26T11:16:52.663Z,4.88
2022-08-26T11:19:59.732Z,5.57
2022-08-26T11:22:32.027Z,5.78
2022-08-26T11:24:58.863Z,8.43
2022-08-26T11:27:26.215Z,7.28
2022-08-26T11:30:01.242Z,6.75
2022-08-26T11:32:33.719Z,7.47
2022-08-26T11:35:34.957Z,6.10
2022-08-26T11:38:20.260Z,6.88
2022-08-26T11:40:58.150Z,7.43
2022-08-26T11:43:29.890Z,5.53
2022-08-26T11:46:10.651Z,4.30
2022-08-26T11:48:43.050Z,5.22
2022-08-26T11:51:21.994Z,5.35
2022-08-26T11:53:49.196Z,5.20
2022-08-26T11:56:33.273Z,6.03
2022-08-26T11:59:03.595Z,6.43
2022-08-26T12:01:35.595Z,5.82
2022-08-26T12:04:13.789Z,7.13
2022-08-26T12:06:51.009Z,6.28
2022-08-26T12:09:30.327Z,5.78
2022-08-26T12:12:15.496Z,6.35
2022-08-26T12:14:43.092Z,5.68
2022-08-26T12:17:18.690Z,3.55
2022-08-26T12:19:45.971Z,4.88
2022-08-26T12:22:22.542Z,6.55
2022-08-26T12:24:54.260Z,5.00
2022-08-26T12:27:20.933Z,5.63
2022-08-26T12:30:24.391Z,7.88
2022-08-26T12:33:12.492Z,3.97
2022-08-26T12:38:24.417Z,6.07
2022-08-26T12:40:51.044Z,6.28
2022-08-26T12:43:56.709Z,10.30
2022-08-26T12:46:28.610Z,5.18
2022-08-26T12:49:01.062Z,4.93
2022-08-26T12:51:30.722Z,8.25
2022-08-26T12:53:58.267Z,4.45
2022-08-26T12:56:40.643Z,7.07
2022-08-26T12:59:18.352Z,3.80
2022-08-26T13:01:46.742Z,5.75
2022-08-26T13:04:40.737Z,4.22
2022-08-26T13:07:27.185Z,6.05
2022-08-26T13:12:33.559Z,5.65
2022-08-26T13:15:01.650Z,4.50
2022-08-26T13:17:30.258Z,5.47
2022-08-26T13:20:03.304Z,3.28
2022-08-26T13:22:30.305Z,5.03
2022-08-26T13:24:57.416Z,5.18
2022-08-26T13:27:26.441Z,5.45
2022-08-26T13:29:54.336Z,7.70
2022-08-26T13:32:22.554Z,3.83
2022-08-26T13:34:55.142Z,3.95
2022-08-26T13:37:22.389Z,4.80
2022-08-26T13:40:04.982Z,4.03
2022-08-26T13:42:31.645Z,7.60
2022-08-26T13:44:58.906Z,6.50
2022-08-26T13:47:26.151Z,4.03
2022-08-26T13:49:54.831Z,4.32
2022-08-26T13:52:30.584Z,3.22
2022-08-26T13:55:00.451Z,4.18
2022-08-26T13:57:29.858Z,3.88
2022-08-26T14:00:01.892Z,5.75
2022-08-26T14:02:28.554Z,6.32
2022-08-26T14:04:55.988Z,3.80
2022-08-26T14:07:23.130Z,3.88
2022-08-26T14:09:49.710Z,4.05
2022-08-26T14:12:16.806Z,3.42
2022-08-26T14:14:43.562Z,4.10
2022-08-26T14:17:10.129Z,3.47
2022-08-26T14:19:36.943Z,3.65
2022-08-26T14:22:04.044Z,4.88
2022-08-26T14:24:30.731Z,6.85
2022-08-26T14:26:57.479Z,2.95
2022-08-26T14:29:24.140Z,4.82
2022-08-26T14:31:50.800Z,5.50
2022-08-26T14:34:17.696Z,4.68
2022-08-26T14:36:44.385Z,7.80
2022-08-26T14:39:13.538Z,12.30
2022-08-26T14:41:45.610Z,6.38
2022-08-26T14:44:22.249Z,5.32
2022-08-26T14:46:51.111Z,4.00
2022-08-26T14:49:19.461Z,5.03
2022-08-26T14:51:46.625Z,3.55
2022-08-26T14:54:17.603Z,5.00
2022-08-26T14:57:05.975Z,4.88
2022-08-26T14:59:36.191Z,6.65
2022-08-26T15:02:04.649Z,6.30
2022-08-26T15:04:31.565Z,3.65
2022-08-26T15:07:00.498Z,4.22
2022-08-26T15:09:28.964Z,4.22
2022-08-26T15:11:58.072Z,5.70
2022-08-26T15:14:27.590Z,6.15
2022-08-26T15:16:57.107Z,2.50
2022-08-26T15:19:25.688Z,5.25
2022-08-26T15:21:52.962Z,3.75
2022-08-26T15:24:22.475Z,4.68
2022-08-26T15:26:49.585Z,3.00
2022-08-26T15:29:16.847Z,6.68
2022-08-26T15:31:43.664Z,4.18
2022-08-26T15:34:16.326Z,4.78
2022-08-26T15:36:45.912Z,3.90
2022-08-26T15:39:12.988Z,6.72
2022-08-26T15:41:39.531Z,5.55
2022-08-26T15:44:07.616Z,2.88
2022-08-26T15:46:34.939Z,4.25
2022-08-26T15:49:03.222Z,4.68
2022-08-26T15:51:35.420Z,3.85
2022-08-26T15:54:13.802Z,5.78
2022-08-26T15:56:40.409Z,5.88
2022-08-26T15:59:07.989Z,6.18
2022-08-26T16:01:35.107Z,6.40
2022-08-26T16:04:02.116Z,3.63
2022-08-26T16:06:31.706Z,5.18
2022-08-26T16:08:59.148Z,5.85
2022-08-26T16:11:26.429Z,3.50
2022-08-26T16:13:53.467Z,6.38
2022-08-26T16:16:21.504Z,10.43
2022-08-26T16:18:48.582Z,3.95
2022-08-26T16:21:20.537Z,4.82
2022-08-26T16:23:47.301Z,4.38
2022-08-26T16:26:23.114Z,6.55
2022-08-26T16:28:56.774Z,5.43
2022-08-26T16:31:29.892Z,5.28
2022-08-26T16:33:56.797Z,2.80
2022-08-26T16:36:24.135Z,4.53
2022-08-26T16:39:16.149Z,4.13
2022-08-26T16:41:44.148Z,4.50
2022-08-26T16:44:12.027Z,5.47
2022-08-26T16:46:39.655Z,7.45
2022-08-26T16:49:06.822Z,6.18
2022-08-26T16:51:41.147Z,5.32
2022-08-26T16:54:09.036Z,8.00
2022-08-26T16:56:37.419Z,6.45
2022-08-26T16:59:14.086Z,4.18
2022-08-26T17:01:47.791Z,6.15
2022-08-26T17:04:14.725Z,4.70
2022-08-26T17:06:41.747Z,7.05
2022-08-26T17:09:23.444Z,6.18
2022-08-26T17:11:53.076Z,5.47
2022-08-26T17:14:20.027Z,4.85
2022-08-26T17:16:49.952Z,9.38
2022-08-26T17:19:34.543Z,8.57
2022-08-26T17:22:09.014Z,6.50
2022-08-26T17:24:35.845Z,10.43
2022-08-26T17:27:02.560Z,4.38
2022-08-26T17:29:31.184Z,5.88
2022-08-26T17:31:59.625Z,5.63
2022-08-26T17:34:26.633Z,5.35
2022-08-26T17:36:56.073Z,4.97
2022-08-26T17:39:25.251Z,11.00
2022-08-26T17:41:52.141Z,4.57
2022-08-26T17:44:19.033Z,5.28
2022-08-26T17:46:58.785Z,6.70
2022-08-26T17:49:35.473Z,8.70
2022-08-26T17:52:02.753Z,8.88
2022-08-26T17:54:30.148Z,6.40
2022-08-26T17:57:00.836Z,6.45
2022-08-26T17:59:41.002Z,9.93
2022-08-26T18:02:12.813Z,7.63
2022-08-26T18:04:39.932Z,7.82
2022-08-26T18:07:19.638Z,7.00
2022-08-26T18:12:15.782Z,6.05
2022-08-26T18:14:49.716Z,6.38
2022-08-26T18:17:19.511Z,6.47
2022-08-26T18:19:50.571Z,4.30
2022-08-26T18:22:23.254Z,5.50
2022-08-26T18:24:52.771Z,4.47
2022-08-26T18:27:36.544Z,5.15
2022-08-26T18:30:35.444Z,4.50
2022-08-26T18:33:15.105Z,5.78
2022-08-26T18:35:45.335Z,7.88
2022-08-26T18:38:14.261Z,11.23
2022-08-26T18:40:44.060Z,11.35
2022-08-26T18:44:00.038Z,9.35
2022-08-26T18:46:29.883Z,6.68
2022-08-26T18:48:57.826Z,8.02
2022-08-26T18:51:29.907Z,6.70
2022-08-26T18:53:57.277Z,10.15
2022-08-26T18:56:34.757Z,10.40
2022-08-26T18:59:33.506Z,9.80
2022-08-26T19:02:10.262Z,12.77
2022-08-26T19:04:48.507Z,8.00
2022-08-26T19:07:15.174Z,7.72
2022-08-26T19:09:41.886Z,7.45
2022-08-26T19:12:08.931Z,7.47
2022-08-26T19:14:40.841Z,7.75
2022-08-26T19:17:15.020Z,7.55
2022-08-26T19:20:17.912Z,6.68
2022-08-26T19:22:59.640Z,8.90
2022-08-26T19:28:19.755Z,7.32
2022-08-26T19:30:53.654Z,10.23
2022-08-26T19:33:30.007Z,8.93
2022-08-26T19:36:32.912Z,6.63
2022-08-26T19:39:00.462Z,6.88
2022-08-26T19:41:44.084Z,8.88
2022-08-26T19:44:49.300Z,8.48
2022-08-26T19:47:18.031Z,7.93
2022-08-26T19:50:02.913Z,6.90
2022-08-26T19:52:33.389Z,8.13
2022-08-26T19:55:03.880Z,7.63
2022-08-26T19:57:33.906Z,9.20
2022-08-26T20:00:01.112Z,6.88
2022-08-26T20:02:28.876Z,8.32
2022-08-26T20:05:08.171Z,10.60
2022-08-26T20:07:35.706Z,7.00
2022-08-26T20:10:13.180Z,6.07
2022-08-26T20:12:42.958Z,8.50
2022-08-26T20:15:14.528Z,8.48
2022-08-26T20:17:49.957Z,9.10
2022-08-26T20:20:39.008Z,8.27
2022-08-26T20:23:07.996Z,10.02
2022-08-26T20:25:43.618Z,8.75
2022-08-26T20:28:10.453Z,10.35
2022-08-26T20:30:38.905Z,7.97
2022-08-26T20:33:44.379Z,9.40
2022-08-26T20:36:35.198Z,9.27
2022-08-26T20:39:11.030Z,7.18
2022-08-26T20:41:38.923Z,8.38
2022-08-26T20:44:11.317Z,7.95
2022-08-26T20:46:38.968Z,6.45
2022-08-26T20:49:12.719Z,10.63
2022-08-26T20:51:42.968Z,8.63
2022-08-26T20:54:15.405Z,7.70
2022-08-26T20:56:42.278Z,10.68
2022-08-26T20:59:12.301Z,9.07
2022-08-26T21:01:46.778Z,9.80
2022-08-26T21:04:23.241Z,8.70
2022-08-26T21:06:54.607Z,7.13
2022-08-26T21:09:28.956Z,7.53
2022-08-26T21:12:09.247Z,9.65
2022-08-26T21:14:36.016Z,6.20
2022-08-26T21:17:15.557Z,9.20
2022-08-26T21:26:13.385Z,9.52
2022-08-26T21:28:42.616Z,12.00
2022-08-26T21:31:12.864Z,11.55
2022-08-26T21:33:39.560Z,11.20
2022-08-26T21:36:09.299Z,14.95
2022-08-26T21:38:40.169Z,13.13
2022-08-26T21:41:14.020Z,11.73
2022-08-26T21:43:41.977Z,12.18
2022-08-26T21:46:14.783Z,11.82
2022-08-26T21:48:54.690Z,9.88
2022-08-26T21:51:24.201Z,12.48
2022-08-26T21:53:53.006Z,11.48
2022-08-26T21:56:21.169Z,14.45
2022-08-26T21:58:47.865Z,7.40
2022-08-26T22:01:17.700Z,7.80
2022-08-26T22:03:47.542Z,7.32
2022-08-26T22:06:16.521Z,10.60
2022-08-26T22:08:43.285Z,7.07
2022-08-26T22:11:10.477Z,9.35
2022-08-26T22:13:39.152Z,11.20
2022-08-26T22:16:06.797Z,8.93
2022-08-26T22:18:34.110Z,12.02
2022-08-26T22:21:05.242Z,13.90
2022-08-26T22:23:31.944Z,14.45
2022-08-26T22:25:59.392Z,11.32
2022-08-26T22:28:26.550Z,12.00
2022-08-26T22:30:53.105Z,10.60
2022-08-26T22:33:19.923Z,10.18
2022-08-26T22:35:48.656Z,10.23
2022-08-26T22:38:15.322Z,12.07
2022-08-26T22:40:50.445Z,11.27
2022-08-26T22:43:18.851Z,11.18
2022-08-26T22:45:48.195Z,11.45
2022-08-26T22:48:17.573Z,11.27
2022-08-26T22:50:46.180Z,13.82
2022-08-26T22:53:13.515Z,14.48
2022-08-26T22:55:40.162Z,16.02
2022-08-26T22:58:07.064Z,10.45
2022-08-26T23:00:34.259Z,14.50
2022-08-26T23:03:01.801Z,9.13
2022-08-26T23:05:28.678Z,8.15
2022-08-26T23:07:56.649Z,9.30
2022-08-26T23:10:24.397Z,8.80
2022-08-26T23:12:52.517Z,9.93
2022-08-26T23:15:20.115Z,13.90
2022-08-26T23:17:47.081Z,13.27
2022-08-26T23:20:20.240Z,9.75
2022-08-26T23:22:46.773Z,10.90
2022-08-26T23:25:14.858Z,9.40
2022-08-26T23:27:43.294Z,15.27
2022-08-26T23:30:14.518Z,19.52
2022-08-26T23:32:41.292Z,12.40
2022-08-26T23:35:09.800Z,11.75
2022-08-26T23:37:43.676Z,12.70
2022-08-26T23:40:18.657Z,11.73
2022-08-26T23:42:45.357Z,7.85
2022-08-26T23:45:13.645Z,14.25
2022-08-26T23:47:41.254Z,13.20
2022-08-26T23:50:08.855Z,15.75
2022-08-26T23:52:53.927Z,19.23
2022-08-26T23:55:20.577Z,21.52
2022-08-26T23:57:47.326Z,19.83
